Time;durP1;ratioP1;P1;durP2;ratioP2;P2;SDS_P1;SDS_P2;PMS_P1;PMS_P2;Temp;Humidity;BMP_temperature;BMP_pressure;BME280_temperature;BME280_humidity;BME280_pressure;Samples;Min_cycle;Max_cycle;Signal;HPM_P1;HPM_P2
2023/08/30 06:31:28;;;;;;;;;;;;;;;;;;;;;
2023/08/30 06:50:24;;;;;;;14.70;8.75;;;;;;;18.22;62.69;99585.44;5131944;23;20054;-94
2023/08/30 06:52:50;;;;;;;17.85;8.82;;;;;;;18.23;62.34;99567.69;4953404;28;20070;-94
2023/08/30 06:55:18;;;;;;;21.23;9.13;;;;;;;18.15;62.57;99529.94;4933861;28;20043;-96
2023/08/30 06:57:49;;;;;;;21.75;9.80;;;;;;;18.28;61.85;99529.47;4950829;28;20185;-95
2023/08/30 07:00:17;;;;;;;20.15;9.68;;;;;;;18.36;61.64;99549.81;4932508;28;20035;-93
2023/08/30 07:02:45;;;;;;;21.88;9.35;;;;;;;18.48;62.14;99557.22;4947901;28;20077;-95
2023/08/30 07:05:16;;;;;;;59.97;11.00;;;;;;;18.75;62.28;99602.56;4948579;28;20030;-93
2023/08/30 07:07:44;;;;;;;22.02;9.65;;;;;;;18.68;61.60;99591.28;4949382;28;20508;-92
2023/08/30 07:10:11;;;;;;;19.00;9.48;;;;;;;18.61;61.13;99588.34;4937270;28;20034;-93
2023/08/30 07:12:37;;;;;;;69.40;11.27;;;;;;;18.33;61.69;99536.69;4953934;28;20460;-96
2023/08/30 07:15:06;;;;;;;39.35;9.57;;;;;;;18.80;61.79;99599.50;4969578;28;20066;-94
2023/08/30 07:17:32;;;;;;;58.83;9.57;;;;;;;18.78;62.07;99574.94;4937356;28;20038;-94
2023/08/30 07:19:58;;;;;;;49.27;9.70;;;;;;;19.08;62.19;99595.75;4935826;28;20047;-92
2023/08/30 07:22:25;;;;;;;16.90;9.38;;;;;;;18.97;60.64;99576.13;4936281;28;20098;-94
2023/08/30 07:24:51;;;;;;;14.40;8.77;;;;;;;18.95;60.22;99581.25;4936857;28;20078;-93
2023/08/30 07:27:17;;;;;;;72.68;10.55;;;;;;;18.80;60.58;99582.09;4935673;28;20055;-95
2023/08/30 07:29:43;;;;;;;30.30;9.00;;;;;;;18.70;60.53;99562.06;4939568;28;20058;-94
2023/08/30 07:32:10;;;;;;;22.00;9.63;;;;;;;18.97;60.50;99593.56;4970340;28;20046;-93
2023/08/30 07:34:39;;;;;;;21.25;8.32;;;;;;;18.66;62.05;99552.88;4937198;28;20051;-94
2023/08/30 07:37:17;;;;;;;17.42;8.95;;;;;;;18.83;60.07;99590.47;4934542;28;20057;-94
2023/08/30 07:39:44;;;;;;;35.15;10.88;;;;;;;18.52;61.38;99550.59;4938100;28;20043;-94
2023/08/30 07:42:11;;;;;;;23.65;9.63;;;;;;;18.97;61.07;99603.81;4941649;28;20054;-95
2023/08/30 07:44:38;;;;;;;23.55;9.40;;;;;;;18.83;61.69;99581.34;4957259;28;20051;-94
2023/08/30 07:47:04;;;;;;;24.35;10.82;;;;;;;18.88;61.30;99589.41;4937625;28;20043;-95
2023/08/30 07:49:33;;;;;;;20.88;9.95;;;;;;;18.62;61.01;99567.81;4938164;28;20047;-95
2023/08/30 07:51:59;;;;;;;37.15;11.00;;;;;;;18.72;60.46;99578.34;4952600;28;20050;-95
2023/08/30 07:54:26;;;;;;;17.33;9.07;;;;;;;18.68;60.07;99563.59;4953073;28;20057;-95
2023/08/30 07:56:52;;;;;;;29.67;11.27;;;;;;;18.86;60.57;99586.19;4939336;28;20035;-95
2023/08/30 07:59:19;;;;;;;30.38;9.50;;;;;;;18.80;60.35;99585.66;4924077;28;20786;-94
2023/08/30 08:01:46;;;;;;;22.38;9.35;;;;;;;18.54;61.30;99569.59;4941082;28;20039;-95
2023/08/30 08:04:13;;;;;;;;;;;;;;;18.81;61.14;99614.97;4947015;28;20487;-93
2023/08/30 08:06:42;;;;;;;33.03;10.13;;;;;;;18.38;61.14;99543.94;4966115;28;19922;-95
2023/08/30 08:09:08;;;;;;;21.77;8.97;;;;;;;18.70;60.37;99600.81;4948362;28;20077;-95
2023/08/30 08:11:34;;;;;;;17.02;9.23;;;;;;;18.51;60.69;99564.81;4957246;28;20328;-94
2023/08/30 08:14:02;;;;;;;25.52;9.40;;;;;;;18.86;59.91;99609.13;4940810;28;20043;-93
2023/08/30 08:16:32;;;;;;;21.45;9.23;;;;;;;18.99;60.10;99593.19;4968605;28;20050;-93
2023/08/30 08:19:01;;;;;;;18.23;9.70;;;;;;;19.02;60.47;99584.97;4958595;28;20495;-94
2023/08/30 08:21:27;;;;;;;25.92;10.52;;;;;;;19.09;59.96;99587.06;4966570;28;20046;-93
2023/08/30 08:23:53;;;;;;;19.52;10.55;;;;;;;19.12;59.32;99577.25;4968074;28;20073;-95
2023/08/30 08:26:20;;;;;;;19.93;9.60;;;;;;;19.12;58.89;99568.94;4955397;28;20037;-94
2023/08/30 08:28:46;;;;;;;28.05;9.73;;;;;;;19.16;58.55;99567.03;4957976;28;20786;-95
2023/08/30 08:31:17;;;;;;;24.17;9.17;;;;;;;19.62;58.82;99628.16;4956275;28;20042;-93
2023/08/30 08:33:55;;;;;;;19.88;8.52;;;;;;;19.27;58.89;99595.78;4976848;28;20288;-94
2023/08/30 08:36:25;;;;;;;25.52;9.07;;;;;;;19.05;58.75;99560.47;4961911;28;20052;-94
2023/08/30 08:38:53;;;;;;;26.25;9.50;;;;;;;19.37;58.36;99600.75;4943408;28;20054;-95
2023/08/30 08:41:26;;;;;;;21.00;8.70;;;;;;;19.36;57.76;99596.34;4960575;28;20060;-92
2023/08/30 08:43:52;;;;;;;36.40;11.85;;;;;;;19.64;57.66;99634.97;4943492;28;20026;-93
2023/08/30 08:46:24;;;;;;;18.80;10.00;;;;;;;19.32;57.71;99589.94;5121603;23;20034;-95
2023/08/30 08:48:52;;;;;;;30.15;9.43;;;;;;;19.64;57.34;99640.53;4976908;28;20082;-92
2023/08/30 08:51:20;;;;;;;23.30;10.32;;;;;;;19.07;57.82;99581.09;4960891;28;20603;-93
2023/08/30 08:53:47;;;;;;;17.63;9.30;;;;;;;19.31;58.03;99626.34;4973578;28;20054;-94
2023/08/30 08:56:19;;;;;;;34.65;8.85;;;;;;;19.21;58.89;99611.09;4972542;28;20038;-91
2023/08/30 08:58:45;;;;;;;23.33;9.25;;;;;;;19.23;58.38;99622.59;4974361;28;20412;-93
2023/08/30 09:01:15;;;;;;;;;;;;;;;19.42;58.77;99642.03;4959801;28;20044;-96
2023/08/30 09:03:43;;;;;;;17.13;9.25;;;;;;;19.20;58.49;99604.75;4959109;28;19908;-95
2023/08/30 09:06:15;;;;;;;29.50;9.50;;;;;;;19.44;57.82;99644.44;4977718;28;20039;-94
2023/08/30 09:08:55;;;;;;;28.13;8.95;;;;;;;19.30;58.88;99642.16;4975102;28;20046;-94
2023/08/30 09:11:46;;;;;;;21.30;10.05;;;;;;;19.33;58.29;99629.53;4975004;28;20038;-95
2023/08/30 09:14:16;;;;;;;35.13;10.75;;;;;;;19.32;57.73;99614.09;4953446;28;20054;-94
2023/08/30 09:16:43;;;;;;;23.83;10.68;;;;;;;19.57;57.71;99657.00;4953002;28;20034;-93
2023/08/30 09:19:44;;;;;;;23.27;9.80;;;;;;;19.29;57.61;99601.75;4942987;28;20046;-96
2023/08/30 09:27:44;;;;;;;12.05;8.90;;;;;;;19.37;57.22;99660.91;5024921;28;20042;-93
2023/08/30 09:31:01;;;;;;;16.75;10.10;;;;;;;19.24;58.43;99685.22;5011781;23;20038;-94
2023/08/30 09:33:59;;;;;;;18.00;9.67;;;;;;;18.93;57.51;99628.69;4895371;29;20093;-95
2023/08/30 09:45:42;;;;;;;36.40;9.57;;;;;;;20.13;56.79;99670.41;916452;23;20186;-92
2023/08/30 10:13:15;;;;;;;17.20;8.10;;;;;;;20.41;56.28;99689.53;4991763;28;20042;-92
2023/08/30 10:16:04;;;;;;;21.35;8.70;;;;;;;20.01;55.50;99617.03;4972189;28;20050;-93
2023/08/30 10:22:14;;;;;;;21.23;8.85;;;;;;;20.42;55.38;99684.78;5071291;23;20149;-94
2023/08/30 10:25:24;;;;;;;16.85;8.30;;;;;;;20.16;54.51;99657.72;5001116;28;20073;-95
2023/08/30 10:28:15;;;;;;;13.80;8.65;;;;;;;19.95;55.46;99658.94;5002719;23;20073;-95
2023/08/30 10:30:52;;;;;;;21.60;9.43;;;;;;;20.03;55.13;99659.88;4953336;29;20039;-95
2023/08/30 10:33:25;;;;;;;20.25;8.98;;;;;;;19.84;55.68;99616.34;4926517;28;20040;-94
2023/08/30 10:36:32;;;;;;;25.23;8.85;;;;;;;20.26;55.12;99654.34;4968553;29;20061;-93
2023/08/30 10:39:38;;;;;;;16.25;8.85;;;;;;;20.47;56.24;99678.91;4943277;29;20040;-91
2023/08/30 10:50:47;;;;;;;14.60;7.63;;;;;;;21.00;55.17;99673.44;4995761;28;20054;-90
2023/08/30 10:57:01;;;;;;;19.33;8.38;;;;;;;21.09;54.18;99673.97;5049149;23;20047;-96
2023/08/30 11:00:10;;;;;;;12.50;7.95;;;;;;;21.16;52.80;99667.72;5052623;23;20056;-96
2023/08/30 11:02:38;;;;;;;19.73;8.48;;;;;;;20.75;52.54;99608.34;4973946;28;20111;-96
2023/08/30 11:05:12;;;;;;;20.83;7.47;;;;;;;20.68;54.70;99620.16;4965271;28;20035;-95
2023/08/30 11:12:40;;;;;;;;;;;;;;;21.09;55.04;99667.59;4885665;29;20085;-96
2023/08/30 11:15:09;;;;;;;30.38;8.88;;;;;;;21.06;53.97;99644.16;4846923;29;19924;-95
2023/08/30 11:17:43;;;;;;;20.73;7.80;;;;;;;20.97;52.39;99624.16;4825863;29;20113;-94
2023/08/30 11:20:32;;;;;;;;;;;;;;;;;;;;;
2023/08/30 11:25:52;;;;;;;35.47;8.35;;;;;;;21.02;53.69;99636.91;4937649;28;20049;-94
2023/08/30 11:28:30;;;;;;;20.25;7.72;;;;;;;21.28;54.43;99656.34;4969885;28;20402;-94
2023/08/30 11:30:56;;;;;;;27.90;9.52;;;;;;;21.33;52.33;99671.91;4915771;28;20070;-94
2023/08/30 11:33:26;;;;;;;13.73;8.23;;;;;;;21.05;51.50;99602.81;4938392;28;20032;-95
2023/08/30 11:36:00;;;;;;;14.60;7.88;;;;;;;21.09;51.09;99620.34;4947700;28;20090;-95
2023/08/30 11:38:46;;;;;;;17.85;8.02;;;;;;;21.30;51.86;99640.09;4943972;28;20361;-93
2023/08/30 11:41:28;;;;;;;24.27;7.18;;;;;;;21.51;53.18;99642.38;4885492;29;20059;-94
2023/08/30 11:43:54;;;;;;;19.98;7.47;;;;;;;21.60;52.88;99619.03;4855391;29;20082;-94
2023/08/30 11:46:36;;;;;;;18.13;7.45;;;;;;;21.45;51.43;99626.41;4840674;29;20057;-94
2023/08/30 11:49:03;;;;;;;27.75;8.63;;;;;;;21.52;51.31;99629.25;4909984;23;20059;-94
2023/08/30 11:55:58;;;;;;;20.53;7.67;;;;;;;21.86;50.11;99651.53;4905749;29;20101;-96
2023/08/30 11:58:33;;;;;;;18.40;7.45;;;;;;;21.40;49.79;99596.94;4916368;29;20040;-95
2023/08/30 12:01:22;;;;;;;22.25;7.53;;;;;;;21.73;51.79;99643.44;4883022;29;20048;-94
2023/08/30 12:03:53;;;;;;;28.33;8.18;;;;;;;21.54;50.55;99602.66;4877915;29;20051;-96
2023/08/30 13:08:30;;;;;;;13.63;6.90;;;;;;;22.07;51.39;99584.13;4979731;28;20270;-96
2023/08/30 13:11:21;;;;;;;34.65;9.35;;;;;;;21.75;52.28;99546.44;4885931;29;20060;-96
2023/08/30 13:14:22;;;;;;;16.52;8.88;;;;;;;21.94;50.33;99578.03;4876406;23;20251;-96
2023/08/30 13:17:00;;;;;;;17.23;7.60;;;;;;;21.58;49.87;99533.16;4924440;29;20062;-96
2023/08/30 14:22:17;;;;;;;32.05;7.57;;;;;;;22.24;52.43;99491.59;5129418;23;20333;-98
2023/08/30 14:37:49;;;;;;;22.40;5.68;;;;;;;21.64;53.18;99423.13;5016034;28;20102;-96
2023/08/30 14:40:16;;;;;;;15.85;5.80;;;;;;;21.60;52.85;99415.97;4985037;28;20053;-92
2023/08/30 14:42:43;;;;;;;14.70;6.88;;;;;;;21.63;53.02;99431.88;4947007;28;20054;-94
2023/08/30 14:45:10;;;;;;;28.65;6.65;;;;;;;21.48;52.99;99405.91;4952782;28;20042;-91
2023/08/30 14:47:51;;;;;;;35.25;8.73;;;;;;;21.57;53.27;99401.63;4946038;28;20031;-92
2023/08/30 14:50:24;;;;;;;23.92;6.70;;;;;;;21.61;53.00;99403.63;4970344;28;20089;-94
2023/08/30 14:53:36;;;;;;;42.83;8.00;;;;;;;21.35;53.39;99386.72;4950990;28;20026;-93
2023/08/30 15:04:25;;;;;;;19.35;7.97;;;;;;;21.21;54.75;99319.84;5032497;28;20455;-94
2023/08/30 15:06:56;;;;;;;16.50;6.78;;;;;;;21.23;55.03;99336.94;4990711;28;20669;-94
2023/08/30 15:09:24;;;;;;;18.10;6.65;;;;;;;21.40;55.27;99374.47;4976400;28;20041;-92
2023/08/30 15:11:50;;;;;;;29.35;6.40;;;;;;;21.03;55.27;99347.50;4997241;28;20041;-91
2023/08/30 15:14:17;;;;;;;21.20;5.70;;;;;;;21.41;56.04;99397.50;4968702;28;20053;-94
2023/08/30 15:20:08;;;;;;;29.95;6.70;;;;;;;21.45;55.62;99453.94;5976404;23;20025;-94
2023/08/30 15:22:35;;;;;;;18.45;7.22;;;;;;;20.96;56.23;99404.97;4963361;28;20046;-94
2023/08/30 15:25:06;;;;;;;12.05;5.60;;;;;;;21.30;56.41;99478.81;4965094;28;20045;-91
2023/08/30 15:27:36;;;;;;;24.67;6.07;;;;;;;20.88;56.84;99426.31;4982279;28;20522;-91
2023/08/30 15:30:06;;;;;;;13.65;5.78;;;;;;;20.81;56.54;99418.72;4962422;28;20054;-93
2023/08/30 15:32:50;;;;;;;20.80;6.38;;;;;;;20.74;56.68;99426.97;4979098;28;20046;-95
2023/08/30 15:35:16;;;;;;;22.65;5.72;;;;;;;20.76;57.42;99451.56;4962279;28;20041;-93
2023/08/30 15:37:45;;;;;;;28.85;7.00;;;;;;;20.53;57.69;99424.72;4985973;28;20514;-93
2023/08/30 15:40:11;;;;;;;34.58;6.78;;;;;;;20.84;58.49;99497.75;4978027;28;20050;-93
2023/08/30 15:42:41;;;;;;;29.92;6.35;;;;;;;20.61;57.53;99484.75;4986760;28;20073;-92
2023/08/30 15:45:08;;;;;;;23.02;6.22;;;;;;;20.42;59.64;99473.72;4954259;28;20055;-93
2023/08/30 15:47:34;;;;;;;31.65;6.82;;;;;;;20.39;60.06;99489.16;4934487;28;20050;-94
2023/08/30 15:50:00;;;;;;;16.00;6.28;;;;;;;20.32;60.23;99491.03;4964136;28;20048;-93
2023/08/30 15:52:40;;;;;;;20.73;6.72;;;;;;;19.92;60.96;99448.00;4972627;28;20050;-92
2023/08/30 15:55:30;;;;;;;;;;;;;;;;;;;;;
2023/08/30 15:58:34;;;;;;;18.25;6.63;;;;;;;19.80;61.25;99451.81;4956854;28;20039;-95
2023/08/30 16:01:53;;;;;;;26.75;7.88;;;;;;;19.94;60.37;99488.09;4958087;28;20082;-94
2023/08/30 16:04:59;;;;;;;16.55;6.68;;;;;;;19.62;60.37;99450.66;4982302;28;20046;-96
2023/08/30 16:07:46;;;;;;;38.72;7.40;;;;;;;19.76;60.98;99497.28;4958392;28;20035;-95
2023/08/30 16:10:13;;;;;;;28.63;7.55;;;;;;;19.46;60.97;99448.81;4953510;28;20030;-93
2023/08/30 16:12:42;;;;;;;32.80;7.85;;;;;;;19.65;61.29;99495.13;4954854;28;20109;-92
2023/08/30 16:15:10;;;;;;;27.00;7.67;;;;;;;19.45;61.48;99479.69;4956548;28;20046;-94
2023/08/30 16:17:37;;;;;;;18.88;6.95;;;;;;;19.47;61.88;99486.47;4928982;29;20287;-93
2023/08/30 16:20:12;;;;;;;20.35;6.63;;;;;;;19.47;61.86;99505.88;4918579;29;20059;-93
2023/08/30 16:22:47;;;;;;;10.68;6.80;;;;;;;19.10;62.57;99457.63;4922206;29;20115;-93
2023/08/30 16:25:13;;;;;;;20.83;7.45;;;;;;;19.06;63.17;99467.84;4964177;29;20043;-94
2023/08/30 16:27:41;;;;;;;28.27;7.63;;;;;;;19.33;64.15;99524.19;4900952;29;20094;-93
2023/08/30 16:30:14;;;;;;;17.00;7.43;;;;;;;19.12;63.97;99500.44;4932415;29;20027;-91
2023/08/30 16:32:42;;;;;;;24.85;7.30;;;;;;;18.84;63.74;99464.69;4915387;29;20087;-94
2023/08/30 16:35:08;;;;;;;36.70;8.70;;;;;;;18.87;64.53;99474.19;4898958;29;20047;-96
2023/08/30 16:37:36;;;;;;;51.50;8.98;;;;;;;19.00;64.28;99517.22;4901714;29;20074;-93
2023/08/30 16:40:04;;;;;;;52.47;8.63;;;;;;;19.10;64.30;99538.00;4931032;29;20042;-91
2023/08/30 16:42:31;;;;;;;81.38;10.13;;;;;;;18.66;64.99;99480.09;4924780;29;20059;-94
2023/08/30 16:44:58;;;;;;;34.75;9.20;;;;;;;18.71;64.55;99499.19;4921886;29;20044;-93
2023/08/30 16:47:25;;;;;;;25.67;8.93;;;;;;;18.71;64.91;99504.72;4910741;28;20070;-91
2023/08/30 16:49:57;;;;;;;27.05;8.60;;;;;;;18.58;65.11;99498.50;5011256;28;20098;-91
2023/08/30 16:52:25;;;;;;;28.17;9.45;;;;;;;18.52;65.51;99494.41;4960235;28;20027;-89
2023/08/30 16:54:57;;;;;;;36.35;9.93;;;;;;;18.49;66.08;99498.72;4987733;28;20051;-92
2023/08/30 16:57:29;;;;;;;30.67;12.00;;;;;;;18.50;66.03;99519.69;4921454;28;20113;-92
2023/08/30 16:59:59;;;;;;;38.53;13.30;;;;;;;18.60;66.63;99539.66;4974910;28;20041;-92
2023/08/30 17:02:28;;;;;;;27.27;13.98;;;;;;;18.49;66.56;99534.69;5005980;28;20106;-93
2023/08/30 17:04:59;;;;;;;36.25;14.18;;;;;;;18.43;66.72;99533.38;4989102;28;20089;-94
2023/08/30 17:07:25;;;;;;;33.03;14.27;;;;;;;18.34;66.52;99529.97;4945260;28;20046;-93
2023/08/30 17:09:51;;;;;;;31.98;14.52;;;;;;;18.30;66.76;99529.91;4946026;28;20035;-92
2023/08/30 17:12:22;;;;;;;46.38;22.45;;;;;;;18.31;66.78;99550.91;4952161;28;20046;-90
2023/08/30 17:14:54;;;;;;;52.72;21.38;;;;;;;18.34;67.31;99559.63;4947191;28;20045;-91
2023/08/30 17:17:20;;;;;;;52.05;20.25;;;;;;;18.15;67.44;99532.72;4980344;28;20388;-93
2023/08/30 17:19:51;;;;;;;42.60;19.08;;;;;;;18.05;67.35;99542.34;4961339;28;20050;-93
2023/08/30 17:22:17;;;;;;;47.70;19.70;;;;;;;18.23;67.66;99557.41;4935106;28;20065;-91
2023/08/30 17:24:43;;;;;;;38.85;16.77;;;;;;;17.80;67.98;99497.47;4963415;28;20038;-90
2023/08/30 17:27:11;;;;;;;35.45;15.55;;;;;;;17.82;67.87;99506.22;4930475;28;20086;-93
2023/08/30 17:29:37;;;;;;;34.28;13.85;;;;;;;18.03;67.96;99548.22;4925696;28;20050;-91
2023/08/30 17:32:04;;;;;;;43.80;12.47;;;;;;;18.01;68.55;99552.50;4940256;29;20039;-95
2023/08/30 17:34:34;;;;;;;60.42;14.32;;;;;;;17.67;68.27;99505.00;4939073;29;20063;-93
2023/08/30 17:37:07;;;;;;;59.10;15.40;;;;;;;17.66;68.30;99506.19;4935733;29;20047;-96
2023/08/30 17:39:35;;;;;;;30.40;13.05;;;;;;;17.96;68.26;99555.56;4918092;29;20047;-95
2023/08/30 17:42:11;;;;;;;32.92;12.52;;;;;;;17.64;68.69;99515.97;4916232;29;20065;-95
2023/08/30 17:45:00;;;;;;;23.70;10.13;;;;;;;17.81;68.82;99548.84;4918837;29;20055;-94
2023/08/30 17:47:35;;;;;;;17.25;9.15;;;;;;;17.62;68.95;99510.81;4948785;29;20063;-94
2023/08/30 17:50:06;;;;;;;27.52;9.23;;;;;;;17.91;69.25;99566.88;4919690;29;20062;-96
2023/08/30 17:52:42;;;;;;;36.97;10.30;;;;;;;17.78;70.03;99541.25;4887983;29;20120;-95
2023/08/30 18:44:25;;;;;;;36.40;13.75;;;;;;;17.02;70.81;99507.19;4926743;29;20056;-96
2023/08/30 18:47:21;;;;;;;46.28;16.65;;;;;;;16.97;70.80;99508.25;4876502;29;20049;-96
2023/08/30 18:49:53;;;;;;;37.45;16.15;;;;;;;17.38;70.95;99578.91;4907023;29;20518;-93
2023/08/30 18:52:24;;;;;;;50.28;15.18;;;;;;;16.95;71.04;99524.34;4892258;29;20041;-93
2023/08/30 18:54:51;;;;;;;43.03;14.90;;;;;;;16.88;70.92;99513.09;4861376;29;20041;-95
2023/08/30 18:57:19;;;;;;;38.08;14.50;;;;;;;17.19;71.01;99575.97;4889333;29;20041;-93
2023/08/30 18:59:46;;;;;;;85.28;15.75;;;;;;;16.84;71.27;99529.56;4891001;29;20053;-95
2023/08/30 19:02:13;;;;;;;52.00;15.05;;;;;;;16.85;71.33;99535.91;4889242;29;20108;-95
2023/08/30 19:04:41;;;;;;;40.47;14.60;;;;;;;16.78;71.75;99541.22;4875062;29;20084;-94
2023/08/30 19:07:07;;;;;;;31.08;15.45;;;;;;;16.84;71.72;99556.38;4885678;29;20055;-93
2023/08/30 19:09:36;;;;;;;44.65;16.10;;;;;;;16.75;71.68;99545.47;4857160;29;20045;-92
2023/08/30 19:12:02;;;;;;;38.03;16.83;;;;;;;16.91;71.96;99564.88;4883705;29;20045;-94
2023/08/30 19:14:37;;;;;;;45.38;15.85;;;;;;;16.93;71.76;99565.34;4851914;29;20116;-96
2023/08/30 19:17:37;;;;;;;38.05;15.27;;;;;;;17.04;72.13;99594.06;4883207;29;20163;-96
2023/08/30 19:20:33;;;;;;;43.80;16.27;;;;;;;16.84;72.03;99568.22;4884644;29;20070;-96
2023/08/30 23:48:52;;;;;;;28.05;13.65;;;;;;;14.91;77.23;99545.16;5247125;23;20034;-96
